Terminal Aerodrome Forecast
Issued by NWS

Home | Current Version | Previous Version | Text Only | Print | Product List | Glossary On
Versions: 1 2 3 4 5 6 7 8 9 10 11 12 13 14 15 16
000
FTUS45 KTFX 151132
TAFLWT
TAF
KLWT 151132Z 1512/1612 24010G19KT P6SM FEW140 SCT250
     FM152100 28014G24KT P6SM BKN110 BKN200 PROB30 1600/1603 4SM
      -RASN OVC040
     FM160300 30010KT P6SM -SN OVC040
     FM160500 30009KT 6SM -SN OVC015=

USA.gov is the U.S. government's official web portal to all federal, state and local government web resources and services.